createdAt,value
2023-05-15T00:38:54.187Z,6.53
2023-05-15T00:44:01.070Z,4.95
2023-05-15T00:49:13.317Z,4.32
2023-05-15T00:54:17.491Z,9.57
2023-05-15T00:59:21.956Z,4.88
2023-05-15T01:04:25.089Z,10.55
2023-05-15T01:09:32.299Z,14.98
2023-05-15T01:14:35.069Z,8.57
2023-05-15T01:19:37.962Z,4.43
2023-05-15T01:25:09.875Z,10.23
2023-05-15T01:30:23.137Z,8.60
2023-05-15T01:35:32.320Z,8.52
2023-05-15T01:40:35.725Z,7.32
2023-05-15T01:45:44.109Z,9.27
2023-05-15T01:50:48.333Z,8.32
2023-05-15T01:55:52.023Z,12.00
2023-05-15T02:00:57.016Z,9.13
2023-05-15T02:06:00.200Z,5.60
2023-05-15T02:11:04.424Z,11.38
2023-05-15T02:16:08.809Z,7.03
2023-05-15T02:21:11.678Z,8.85
2023-05-15T02:26:27.528Z,11.07
2023-05-15T02:31:46.291Z,8.50
2023-05-15T02:36:50.734Z,9.60
2023-05-15T02:41:54.913Z,11.93
2023-05-15T02:47:00.522Z,9.00
2023-05-15T02:52:03.349Z,6.25
2023-05-15T02:57:07.955Z,5.88
2023-05-15T03:02:12.005Z,9.63
2023-05-15T03:07:15.349Z,7.90
2023-05-15T03:12:18.075Z,11.90
2023-05-15T03:17:22.362Z,16.25
2023-05-15T03:22:25.232Z,12.07
2023-05-15T03:27:27.966Z,9.48
2023-05-15T03:32:32.127Z,10.02
2023-05-15T03:37:34.881Z,6.38
2023-05-15T03:42:37.589Z,4.43
2023-05-15T03:47:42.900Z,4.20
2023-05-15T03:52:45.840Z,6.88
2023-05-15T03:57:48.692Z,13.68
2023-05-15T04:02:52.883Z,14.70
2023-05-15T04:07:55.801Z,10.20
2023-05-15T04:12:58.824Z,20.88
2023-05-15T04:18:03.480Z,37.25
2023-05-15T04:23:06.523Z,50.92
2023-05-15T04:28:09.657Z,56.55
2023-05-15T04:33:13.922Z,67.35
2023-05-15T04:38:17.814Z,69.00
2023-05-15T04:43:21.471Z,81.88
2023-05-15T04:48:26.847Z,82.07
2023-05-15T04:53:29.603Z,89.70
2023-05-15T04:58:36.099Z,102.18
2023-05-15T05:03:40.271Z,108.17
2023-05-15T05:08:43.092Z,106.55
2023-05-15T05:13:48.023Z,106.88
2023-05-15T05:18:52.959Z,109.95
2023-05-15T05:23:56.370Z,111.40
2023-05-15T05:28:59.713Z,99.90
2023-05-15T05:34:03.867Z,101.03
2023-05-15T05:39:06.875Z,95.80
2023-05-15T05:44:09.708Z,98.00
2023-05-15T05:49:13.882Z,98.25
2023-05-15T05:54:18.925Z,90.55
2023-05-15T05:59:21.880Z,98.00
2023-05-15T06:04:29.329Z,91.22
2023-05-15T06:09:34.611Z,98.35
2023-05-15T06:14:37.942Z,94.63
2023-05-15T06:19:42.843Z,111.07
2023-05-15T06:24:45.940Z,107.38
2023-05-15T06:29:48.946Z,107.20
2023-05-15T06:34:53.080Z,94.90
2023-05-15T06:39:56.469Z,96.65
2023-05-15T06:45:03.393Z,103.18
2023-05-15T06:50:09.157Z,96.43
2023-05-15T06:55:11.961Z,103.55
2023-05-15T07:00:16.119Z,91.32
2023-05-15T07:05:21.816Z,84.43
2023-05-15T07:10:26.899Z,77.97
2023-05-15T07:15:30.000Z,70.32
2023-05-15T07:20:39.291Z,74.88
2023-05-15T07:25:43.494Z,75.75
2023-05-15T07:30:47.065Z,79.82
2023-05-15T07:35:53.028Z,80.03
2023-05-15T07:40:55.732Z,78.97
2023-05-15T07:45:58.575Z,76.03
2023-05-15T07:51:02.981Z,74.65
2023-05-15T07:56:06.777Z,70.88
2023-05-15T08:01:09.637Z,78.30
2023-05-15T08:06:13.799Z,83.13
2023-05-15T08:11:18.112Z,94.00
2023-05-15T08:16:23.570Z,79.35
2023-05-15T08:21:28.190Z,97.95
2023-05-15T08:26:30.870Z,94.38
2023-05-15T08:31:34.633Z,88.65
2023-05-15T08:36:39.998Z,85.30
2023-05-15T08:41:51.944Z,80.65
2023-05-15T08:46:58.039Z,84.20
2023-05-15T08:52:04.067Z,86.28
2023-05-15T08:57:07.298Z,78.85
2023-05-15T09:02:11.827Z,75.72
2023-05-15T09:07:17.154Z,77.30
2023-05-15T09:12:21.118Z,81.45
2023-05-15T09:17:24.725Z,67.20
2023-05-15T09:22:34.272Z,76.80
2023-05-15T09:27:43.906Z,73.18
2023-05-15T09:32:50.156Z,70.88
2023-05-15T09:38:00.979Z,74.85
2023-05-15T09:43:07.172Z,65.28
2023-05-15T09:48:14.039Z,80.93
2023-05-15T09:58:24.413Z,81.00
2023-05-15T10:03:28.985Z,88.80
2023-05-15T10:08:37.056Z,86.70
2023-05-15T10:13:39.837Z,83.63
2023-05-15T10:18:47.122Z,98.13
2023-05-15T10:23:53.689Z,92.82
2023-05-15T10:28:58.608Z,85.47
2023-05-15T10:34:04.895Z,76.32
2023-05-15T10:39:09.993Z,75.27
2023-05-15T10:44:14.189Z,72.07
2023-05-15T10:49:17.561Z,74.68
2023-05-15T10:54:23.315Z,66.20
2023-05-15T10:59:36.422Z,77.80
2023-05-15T11:04:40.040Z,70.00
2023-05-15T11:09:44.423Z,67.38
2023-05-15T11:15:21.062Z,57.72
2023-05-15T11:25:40.163Z,68.60
2023-05-15T11:30:44.136Z,61.50
2023-05-15T11:35:48.450Z,59.55
2023-05-15T11:40:58.094Z,56.35
2023-05-15T11:46:07.312Z,60.78
2023-05-15T11:51:21.026Z,51.10
2023-05-15T11:56:28.394Z,47.08
2023-05-15T12:01:41.244Z,45.28
2023-05-15T12:06:47.441Z,46.47
2023-05-15T12:11:54.622Z,43.60
2023-05-15T12:17:02.846Z,46.88
2023-05-15T12:22:06.963Z,42.22
2023-05-15T12:27:12.232Z,41.55
2023-05-15T12:32:17.572Z,43.28
2023-05-15T12:37:23.235Z,39.20
2023-05-15T12:42:29.215Z,40.35
2023-05-15T12:47:32.260Z,42.65
2023-05-15T12:52:37.007Z,33.55
2023-05-15T12:57:43.164Z,38.78
2023-05-15T13:02:48.688Z,31.45
2023-05-15T13:07:54.736Z,35.60
2023-05-15T13:13:00.724Z,42.92
2023-05-15T13:18:07.114Z,23.77
2023-05-15T13:23:11.200Z,24.63
2023-05-15T13:28:15.434Z,19.60
2023-05-15T13:33:18.358Z,20.40
2023-05-15T13:38:21.148Z,15.88
2023-05-15T13:43:26.548Z,25.17
2023-05-15T13:48:33.463Z,19.80
2023-05-15T13:53:40.987Z,15.25
2023-05-15T13:58:46.381Z,16.92
2023-05-15T14:08:54.353Z,32.07
2023-05-15T14:13:59.352Z,17.27
2023-05-15T14:19:02.450Z,14.87
2023-05-15T14:24:05.861Z,23.33
2023-05-15T14:29:12.584Z,20.50
2023-05-15T14:39:19.407Z,14.13
2023-05-15T14:44:23.578Z,12.53
2023-05-15T14:49:26.361Z,14.23
2023-05-15T14:54:31.941Z,16.15
2023-05-15T14:59:38.421Z,11.23
2023-05-15T15:04:41.219Z,10.77
2023-05-15T15:09:43.963Z,10.63
2023-05-15T15:14:48.407Z,16.38
2023-05-15T15:19:54.322Z,10.10
2023-05-15T15:24:59.804Z,13.18
2023-05-15T15:30:04.942Z,10.93
2023-05-15T15:35:08.415Z,11.50
2023-05-15T15:40:12.057Z,23.98
2023-05-15T15:45:16.222Z,8.63
2023-05-15T15:50:19.035Z,6.97
2023-05-15T15:55:23.504Z,8.02
2023-05-15T16:00:28.520Z,11.15
2023-05-15T16:05:33.557Z,8.35
2023-05-15T16:10:36.441Z,6.72
2023-05-15T16:15:40.592Z,6.63
2023-05-15T16:20:43.796Z,10.48
2023-05-15T16:25:46.545Z,14.00
2023-05-15T16:30:52.558Z,5.65
2023-05-15T16:35:56.049Z,8.25
2023-05-15T16:40:59.481Z,6.55
2023-05-15T16:46:04.410Z,9.07
2023-05-15T16:51:07.860Z,12.35
2023-05-15T16:56:12.153Z,10.07
2023-05-15T17:01:17.052Z,7.55
2023-05-15T17:06:20.441Z,11.88
2023-05-15T17:11:24.176Z,9.02
2023-05-15T17:16:29.662Z,16.73
2023-05-15T17:21:34.467Z,25.02
2023-05-15T17:26:38.590Z,21.53
2023-05-15T17:31:43.638Z,17.83
2023-05-15T17:36:46.531Z,19.10
2023-05-15T17:41:50.226Z,26.83
2023-05-15T17:46:57.205Z,22.23
2023-05-15T17:51:59.955Z,32.13
2023-05-15T17:57:05.497Z,30.77
2023-05-15T18:02:11.455Z,29.15
2023-05-15T18:07:14.429Z,27.70
2023-05-15T18:12:17.587Z,22.05
2023-05-15T18:17:21.705Z,21.67
2023-05-15T18:22:25.432Z,33.15
2023-05-15T18:27:29.411Z,34.15
2023-05-15T18:32:35.034Z,30.30
2023-05-15T18:37:37.819Z,32.33
2023-05-15T18:42:40.559Z,25.60
2023-05-15T18:47:45.025Z,27.75
2023-05-15T18:52:49.681Z,25.98
2023-05-15T18:57:52.372Z,25.77
2023-05-15T19:02:56.497Z,27.17
2023-05-15T19:07:59.339Z,28.23
2023-05-15T19:13:02.741Z,23.00
2023-05-15T19:18:07.891Z,30.45
2023-05-15T19:23:14.783Z,25.52
2023-05-15T19:28:17.520Z,28.60
2023-05-15T19:33:22.718Z,30.35
2023-05-15T19:38:25.500Z,34.65
2023-05-15T19:43:28.486Z,33.45
2023-05-15T19:48:32.974Z,41.28
2023-05-15T19:53:36.534Z,34.53
2023-05-15T19:58:40.998Z,43.33
2023-05-15T20:03:45.495Z,41.30
2023-05-15T20:08:49.282Z,35.60
2023-05-15T20:13:52.037Z,36.22
2023-05-15T20:18:58.264Z,39.25
2023-05-15T20:24:01.174Z,35.95
2023-05-15T20:29:05.962Z,40.50
2023-05-15T20:34:10.163Z,38.33
2023-05-15T20:39:14.070Z,39.15
2023-05-15T20:44:17.957Z,41.35
2023-05-15T20:49:22.577Z,43.60
2023-05-15T20:54:25.451Z,48.38
2023-05-15T20:59:28.263Z,42.47
2023-05-15T21:04:32.755Z,51.22
2023-05-15T21:09:36.741Z,48.55
2023-05-15T21:14:39.601Z,53.05
2023-05-15T21:19:43.825Z,63.10
2023-05-15T21:24:46.736Z,67.80
2023-05-15T21:29:50.371Z,75.28
2023-05-15T21:34:54.628Z,75.28
2023-05-15T21:39:57.374Z,87.15
2023-05-15T21:45:00.315Z,83.15
2023-05-15T21:50:06.322Z,85.75
2023-05-15T21:55:10.159Z,85.65
2023-05-15T22:00:14.780Z,78.22
2023-05-15T22:05:20.511Z,75.00
2023-05-15T22:10:23.435Z,75.07
2023-05-15T22:15:26.211Z,77.13
2023-05-15T22:20:30.516Z,69.97
2023-05-15T22:25:33.236Z,67.15
2023-05-15T22:30:36.051Z,65.10
2023-05-15T22:35:40.209Z,71.47
2023-05-15T22:40:42.953Z,70.05
2023-05-15T22:45:45.918Z,53.60
2023-05-15T22:50:52.189Z,55.50
2023-05-15T22:55:54.916Z,54.15
2023-05-15T23:00:58.007Z,51.05
2023-05-15T23:06:02.857Z,39.75
2023-05-15T23:11:05.839Z,41.10
2023-05-15T23:16:09.861Z,47.75
2023-05-15T23:21:14.130Z,45.50
2023-05-15T23:26:16.992Z,45.40
2023-05-15T23:31:19.958Z,44.15
2023-05-15T23:36:24.299Z,48.53
2023-05-15T23:41:27.062Z,54.22
2023-05-15T23:46:29.914Z,56.05
2023-05-15T23:51:34.033Z,45.13
2023-05-15T23:56:36.780Z,42.25
